Schneifelwetter: Wetterstation Hallschlag, 537 m . NN
Wetterdaten: Donnerstag, 27.09.2012
Datum Zeit Temp. A. Feuchte A. Luftdruck Regen Wind Richtung Richtung Sonnenschein T Regen Taupunkt Windchill
27.09.2012 00:14 8,9 C 93 % 1003 hPa 0,0 l/m 20,5 km/h (4 Bft) S-SW22.5 195 0 min 0 min 7,8 C 1,7 C
27.09.2012 00:29 8,9 C 93 % 1002 hPa 0,0 l/m 27,2 km/h (4 Bft) S-SW45 200 0 min 0 min 7,8 C -0,2 C
27.09.2012 00:44 8,9 C 93 % 1002 hPa 0,0 l/m 29,4 km/h (5 Bft) S-SW45 210 0 min 0 min 7,8 C -0,8 C
27.09.2012 00:59 8,9 C 93 % 1003 hPa 0,0 l/m 32,8 km/h (5 Bft) S-SW45 205 0 min 0 min 7,8 C -1,5 C
27.09.2012 01:14 8,8 C 94 % 1003 hPa 0,0 l/m 23,1 km/h (4 Bft) SW45 220 0 min 0 min 7,9 C 0,7 C
27.09.2012 01:29 8,8 C 94 % 1003 hPa 0,0 l/m 30,3 km/h (5 Bft) SW45 230 0 min 0 min 7,9 C -1,1 C
27.09.2012 01:44 8,8 C 94 % 1003 hPa 0,0 l/m 24,3 km/h (4 Bft) S-SW45 195 0 min 0 min 7,9 C 0,4 C
27.09.2012 01:59 8,8 C 94 % 1003 hPa 0,0 l/m 29,2 km/h (5 Bft) SW45 230 0 min 0 min 7,9 C -0,8 C
27.09.2012 02:14 8,8 C 94 % 1003 hPa 0,0 l/m 29,1 km/h (5 Bft) S-SW45 200 0 min 0 min 7,9 C -0,8 C
27.09.2012 02:29 8,8 C 94 % 1003 hPa 0,0 l/m 26,3 km/h (4 Bft) S-SW45 200 0 min 0 min 7,9 C -0,1 C
27.09.2012 02:44 8,8 C 94 % 1003 hPa 0,0 l/m 26,5 km/h (4 Bft) S-SW67.5 210 0 min 0 min 7,9 C -0,2 C
27.09.2012 02:59 8,7 C 95 % 1003 hPa 0,0 l/m 21,9 km/h (4 Bft) S-SW45 200 0 min 0 min 7,9 C 1,0 C
27.09.2012 03:14 8,7 C 95 % 1003 hPa 0,0 l/m 22,2 km/h (4 Bft) S-SW45 205 0 min 0 min 7,9 C 0,9 C
27.09.2012 03:29 8,6 C 95 % 1003 hPa 0,0 l/m 19,3 km/h (3 Bft) S-SW45 205 0 min 0 min 7,8 C 1,7 C
27.09.2012 03:44 8,5 C 95 % 1003 hPa 0,3 l/m 15,4 km/h (3 Bft) S67.5 185 0 min 15 min 7,7 C 3,1 C
27.09.2012 03:59 8,5 C 95 % 1003 hPa 0,6 l/m 12,4 km/h (3 Bft) S22.5 170 0 min 15 min 7,7 C 4,6 C
27.09.2012 04:14 8,4 C 96 % 1003 hPa 0,3 l/m 21,0 km/h (4 Bft) S-SW45 200 0 min 15 min 7,8 C 0,9 C
27.09.2012 04:29 8,4 C 96 % 1003 hPa 0,0 l/m 29,5 km/h (5 Bft) SW67.5 215 0 min 0 min 7,8 C -1,5 C
27.09.2012 04:44 8,4 C 96 % 1003 hPa 0,0 l/m 31,3 km/h (5 Bft) S-SW22.5 210 0 min 0 min 7,8 C -1,9 C
27.09.2012 04:59 8,4 C 96 % 1003 hPa 0,3 l/m 31,1 km/h (5 Bft) S-SW67.5 205 0 min 15 min 7,8 C -1,8 C
27.09.2012 05:14 8,5 C 96 % 1003 hPa 0,0 l/m 23,0 km/h (4 Bft) S-SW22.5 205 0 min 0 min 7,9 C 0,4 C
27.09.2012 05:29 8,5 C 96 % 1003 hPa 0,0 l/m 24,3 km/h (4 Bft) SW45 215 0 min 0 min 7,9 C -0,0 C
27.09.2012 05:44 8,5 C 97 % 1003 hPa 0,0 l/m 29,1 km/h (5 Bft) SW45 225 0 min 0 min 8,1 C -1,2 C
27.09.2012 05:59 8,5 C 97 % 1003 hPa 0,0 l/m 28,5 km/h (4 Bft) SW45 225 0 min 0 min 8,1 C -1,1 C
27.09.2012 06:14 8,5 C 97 % 1003 hPa 0,0 l/m 33,4 km/h (5 Bft) SW67.5 230 0 min 0 min 8,1 C -2,2 C
27.09.2012 06:29 8,5 C 97 % 1003 hPa 0,0 l/m 25,1 km/h (4 Bft) S-SW67.5 210 0 min 0 min 8,1 C -0,2 C
27.09.2012 06:44 8,5 C 97 % 1003 hPa 0,0 l/m 24,6 km/h (4 Bft) S-SW45 205 0 min 0 min 8,1 C -0,1 C
27.09.2012 06:59 8,6 C 97 % 1003 hPa 0,0 l/m 24,7 km/h (4 Bft) S-SW45 210 0 min 0 min 8,2 C 0,0 C
27.09.2012 07:14 8,6 C 97 % 1003 hPa 0,3 l/m 26,1 km/h (4 Bft) S-SW45 205 0 min 15 min 8,2 C -0,4 C
27.09.2012 07:29 8,6 C 97 % 1004 hPa 0,3 l/m 26,8 km/h (4 Bft) SW45 220 0 min 15 min 8,2 C -0,5 C
27.09.2012 07:44 8,5 C 97 % 1004 hPa 0,3 l/m 22,6 km/h (4 Bft) S-SW45 210 0 min 15 min 8,1 C 0,5 C
27.09.2012 07:59 8,6 C 97 % 1004 hPa 0,0 l/m 27,3 km/h (4 Bft) SW67.5 215 0 min 0 min 8,2 C -0,7 C
27.09.2012 08:14 8,6 C 97 % 1004 hPa 0,0 l/m 28,8 km/h (4 Bft) SW45 215 0 min 0 min 8,2 C -1,0 C
27.09.2012 08:29 8,6 C 97 % 1004 hPa 0,0 l/m 32,6 km/h (5 Bft) S-SW45 210 0 min 0 min 8,2 C -1,9 C
27.09.2012 08:44 8,8 C 97 % 1004 hPa 0,0 l/m 26,0 km/h (4 Bft) S-SW45 210 0 min 0 min 8,4 C -0,1 C
27.09.2012 08:59 9,0 C 97 % 1004 hPa 0,0 l/m 22,8 km/h (4 Bft) S-SW45 205 0 min 0 min 8,5 C 1,1 C
27.09.2012 09:15 9,2 C 96 % 1004 hPa 0,0 l/m 22,5 km/h (4 Bft) S-SW22.5 205 0 min 0 min 8,6 C 1,5 C
27.09.2012 09:30 9,4 C 96 % 1004 hPa 0,0 l/m 20,1 km/h (4 Bft) SW67.5 215 0 min 0 min 8,8 C 2,5 C
27.09.2012 09:44 9,9 C 96 % 1004 hPa 0,0 l/m 30,5 km/h (5 Bft) SW22.5 215 0 min 0 min 9,3 C 0,4 C
27.09.2012 09:59 10,2 C 94 % 1004 hPa 0,0 l/m 24,5 km/h (4 Bft) S-SW45 210 0 min 0 min 9,3 C 2,2 C
27.09.2012 10:14 10,8 C 93 % 1005 hPa 0,0 l/m 27,6 km/h (4 Bft) SW67.5 235 0 min 0 min 9,7 C 2,3 C
27.09.2012 10:29 11,1 C 92 % 1005 hPa 0,0 l/m 21,5 km/h (4 Bft) S-SW45 205 0 min 0 min 9,8 C 4,3 C
27.09.2012 10:45 11,2 C 89 % 1005 hPa 0,0 l/m 23,1 km/h (4 Bft) SW67.5 215 0 min 0 min 9,5 C 3,9 C
27.09.2012 11:00 10,8 C 90 % 1005 hPa 0,0 l/m 23,0 km/h (4 Bft) W-SW67.5 255 0 min 0 min 9,2 C 3,4 C
27.09.2012 11:14 10,8 C 90 % 1005 hPa 0,0 l/m 22,5 km/h (4 Bft) SW45 215 0 min 0 min 9,2 C 3,6 C
27.09.2012 11:29 10,6 C 90 % 1005 hPa 0,0 l/m 31,0 km/h (5 Bft) SW67.5 220 0 min 0 min 9,0 C 1,3 C
27.09.2012 11:44 10,6 C 90 % 1005 hPa 0,0 l/m 25,6 km/h (4 Bft) SW22.5 225 0 min 0 min 9,0 C 2,5 C
27.09.2012 11:59 10,8 C 90 % 1005 hPa 0,0 l/m 27,2 km/h (4 Bft) S45 190 0 min 0 min 9,2 C 2,4 C
27.09.2012 12:15 11,0 C 90 % 1005 hPa 0,0 l/m 22,4 km/h (4 Bft) W-SW67.5 240 0 min 0 min 9,4 C 3,9 C
27.09.2012 12:29 10,9 C 89 % 1005 hPa 0,0 l/m 30,2 km/h (5 Bft) SW45 235 0 min 0 min 9,2 C 1,9 C
27.09.2012 12:44 10,8 C 90 % 1005 hPa 0,0 l/m 32,2 km/h (5 Bft) SW45 215 0 min 0 min 9,2 C 1,3 C
27.09.2012 12:59 10,7 C 90 % 1005 hPa 0,0 l/m 32,4 km/h (5 Bft) SW45 235 0 min 0 min 9,1 C 1,2 C
27.09.2012 13:14 11,1 C 91 % 1005 hPa 0,0 l/m 30,6 km/h (5 Bft) SW45 215 0 min 0 min 9,7 C 2,1 C
27.09.2012 13:30 11,2 C 88 % 1005 hPa 0,0 l/m 31,1 km/h (5 Bft) SW45 215 0 min 0 min 9,3 C 2,1 C
27.09.2012 13:45 10,9 C 88 % 1005 hPa 0,0 l/m 27,5 km/h (4 Bft) W-SW45 255 0 min 0 min 9,0 C 2,5 C
27.09.2012 13:59 11,7 C 88 % 1005 hPa 0,6 l/m 31,0 km/h (5 Bft) W-SW67.5 245 0 min 14 min 9,8 C 2,9 C
27.09.2012 14:14 12,4 C 83 % 1005 hPa 0,0 l/m 31,6 km/h (5 Bft) SW67.5 215 0 min 0 min 9,6 C 3,7 C
27.09.2012 14:29 12,8 C 84 % 1005 hPa 0,0 l/m 26,1 km/h (4 Bft) W22.5 260 0 min 0 min 10,2 C 5,4 C
27.09.2012 14:44 12,7 C 81 % 1005 hPa 0,0 l/m 31,5 km/h (5 Bft) SW45 225 0 min 0 min 9,5 C 4,2 C
27.09.2012 15:00 13,1 C 81 % 1005 hPa 0,0 l/m 31,7 km/h (5 Bft) SW45 220 0 min 0 min 9,9 C 4,7 C
27.09.2012 15:15 12,8 C 81 % 1005 hPa 0,0 l/m 34,1 km/h (5 Bft) W-SW45 240 0 min 0 min 9,6 C 3,9 C
27.09.2012 15:29 12,4 C 80 % 1005 hPa 0,0 l/m 41,1 km/h (6 Bft) W-SW67.5 240 0 min 0 min 9,0 C 2,3 C
27.09.2012 15:44 11,9 C 82 % 1006 hPa 0,0 l/m 24,4 km/h (4 Bft) W-SW45 240 0 min 0 min 8,9 C 4,6 C
27.09.2012 15:59 11,6 C 83 % 1005 hPa 0,0 l/m 25,7 km/h (4 Bft) SW22.5 215 0 min 0 min 8,8 C 3,8 C
27.09.2012 16:14 11,4 C 84 % 1005 hPa 0,3 l/m 27,9 km/h (4 Bft) SW45 235 0 min 15 min 8,8 C 3,1 C
27.09.2012 16:30 10,8 C 87 % 1006 hPa 0,6 l/m 23,6 km/h (4 Bft) W22.5 265 0 min 16 min 8,7 C 3,3 C
27.09.2012 16:45 10,4 C 88 % 1006 hPa 1,5 l/m 16,8 km/h (3 Bft) W22.5 260 0 min 15 min 8,5 C 4,9 C
27.09.2012 16:59 10,6 C 89 % 1006 hPa 0,6 l/m 18,3 km/h (3 Bft) W-SW22.5 250 0 min 14 min 8,9 C 4,6 C
27.09.2012 17:14 10,4 C 89 % 1006 hPa 0,0 l/m 21,6 km/h (4 Bft) W-SW22.5 250 0 min 0 min 8,7 C 3,3 C
27.09.2012 17:29 10,4 C 90 % 1006 hPa 0,3 l/m 14,6 km/h (3 Bft) W-SW22.5 250 0 min 15 min 8,8 C 5,8 C
27.09.2012 17:44 10,6 C 91 % 1006 hPa 0,3 l/m 13,3 km/h (3 Bft) SW22.5 235 0 min 15 min 9,2 C 6,6 C
27.09.2012 18:00 10,7 C 91 % 1006 hPa 0,0 l/m 15,8 km/h (3 Bft) W-SW22.5 250 0 min 0 min 9,3 C 5,7 C
27.09.2012 18:15 10,2 C 91 % 1007 hPa 0,0 l/m 17,2 km/h (3 Bft) W22.5 260 0 min 0 min 8,8 C 4,5 C
27.09.2012 18:29 10,0 C 92 % 1007 hPa 0,3 l/m 17,8 km/h (3 Bft) SW45 220 0 min 14 min 8,8 C 4,0 C
27.09.2012 18:44 10,0 C 93 % 1007 hPa 0,0 l/m 19,5 km/h (3 Bft) W-SW45 255 0 min 0 min 8,9 C 3,5 C
27.09.2012 18:59 10,0 C 93 % 1008 hPa 0,0 l/m 27,4 km/h (4 Bft) W-SW45 255 0 min 0 min 8,9 C 1,2 C
27.09.2012 19:14 9,8 C 94 % 1008 hPa 0,0 l/m 16,8 km/h (3 Bft) W-SW22.5 245 0 min 0 min 8,9 C 4,2 C
27.09.2012 19:30 9,6 C 94 % 1008 hPa 0,0 l/m 19,8 km/h (3 Bft) W22.5 260 0 min 0 min 8,7 C 2,8 C
27.09.2012 19:45 9,5 C 94 % 1008 hPa 0,0 l/m 21,0 km/h (4 Bft) W22.5 260 0 min 0 min 8,6 C 2,3 C
27.09.2012 19:59 9,3 C 94 % 1009 hPa 0,0 l/m 16,7 km/h (3 Bft) W22.5 260 0 min 0 min 8,4 C 3,6 C
27.09.2012 20:14 9,0 C 94 % 1009 hPa 0,0 l/m 12,5 km/h (3 Bft) W22.5 260 0 min 0 min 8,1 C 5,1 C
27.09.2012 20:29 9,0 C 95 % 1009 hPa 0,0 l/m 9,8 km/h (2 Bft) W-SW22.5 240 0 min 0 min 8,2 C 6,6 C
27.09.2012 20:44 9,1 C 95 % 1010 hPa 0,0 l/m 10,8 km/h (2 Bft) SW22.5 230 0 min 0 min 8,3 C 6,1 C
27.09.2012 21:00 9,1 C 95 % 1010 hPa 0,0 l/m 11,4 km/h (2 Bft) W-SW22.5 245 0 min 0 min 8,3 C 5,8 C
27.09.2012 21:15 9,1 C 95 % 1010 hPa 0,0 l/m 10,4 km/h (2 Bft) W-SW22.5 250 0 min 0 min 8,3 C 6,4 C
27.09.2012 21:29 9,2 C 95 % 1011 hPa 0,0 l/m 8,0 km/h (2 Bft) SW 225 0 min 0 min 8,4 C 8,0 C
27.09.2012 21:44 9,2 C 95 % 1011 hPa 0,0 l/m 17,4 km/h (3 Bft) W22.5 260 0 min 0 min 8,4 C 3,2 C
27.09.2012 21:59 9,2 C 95 % 1011 hPa 0,0 l/m 10,3 km/h (2 Bft) W-SW22.5 250 0 min 0 min 8,4 C 6,5 C
27.09.2012 22:14 9,2 C 95 % 1011 hPa 0,0 l/m 11,1 km/h (2 Bft) W22.5 270 0 min 0 min 8,4 C 6,1 C
27.09.2012 22:30 9,0 C 95 % 1012 hPa 0,3 l/m 8,1 km/h (2 Bft) W 270 0 min 16 min 8,2 C 7,7 C
27.09.2012 22:45 9,0 C 95 % 1012 hPa 0,0 l/m 17,8 km/h (3 Bft) W-SW45 240 0 min 0 min 8,2 C 2,8 C
27.09.2012 22:59 9,0 C 95 % 1012 hPa 0,0 l/m 15,1 km/h (3 Bft) W22.5 260 0 min 0 min 8,2 C 3,9 C
27.09.2012 23:14 8,8 C 95 % 1012 hPa 0,0 l/m 13,7 km/h (3 Bft) W22.5 260 0 min 0 min 8,0 C 4,3 C
27.09.2012 23:29 8,6 C 95 % 1013 hPa 0,0 l/m 14,2 km/h (3 Bft) W22.5 275 0 min 0 min 7,8 C 3,8 C
27.09.2012 23:44 8,4 C 95 % 1013 hPa 0,0 l/m 13,6 km/h (3 Bft) W-SW22.5 255 0 min 0 min 7,6 C 3,9 C
27.09.2012 23:54 8,4 C 96 % 1013 hPa 0,0 l/m 10,1 km/h (2 Bft) W-SW22.5 250 0 min 0 min 7,8 C 5,8 C
_ Min-Zeit 04:14 15:29 00:29 - 21:29 - - - - 23:44 06:14
Minimum _ 8,4 C 80 % 1002 hPa - 8,0 km/h (2 Bft) - - - - 7,6 C -2,2 C
_ Max-Zeit 15:00 05:44 23:29 16:45 15:29 - - 00:14 16:30 14:29 21:29
Maximum _ 13,1 C 97 % 1013 hPa 1,5 l/m 41,1 km/h
W-SW (6 Bft)
- - 0 min 16 min 10,2 C 8,0 C
Durchschnitt _ 9,7 C 93 % 1006 hPa #7,2 l/m 23,1 km/h (4 Bft) SW - #0 min. #3:59 h 8,5 C 2,4 C